createdAt,value
2018-12-16T00:01:37.138Z,100984.91
2018-12-16T00:04:07.961Z,100990.47
2018-12-16T00:06:38.918Z,100990.44
2018-12-16T00:09:08.874Z,100990.02
2018-12-16T00:11:39.830Z,100985.27
2018-12-16T00:14:08.584Z,100989.51
2018-12-16T00:16:37.808Z,100987.38
2018-12-16T00:19:07.737Z,100999.33
2018-12-16T00:21:37.719Z,100997.56
2018-12-16T00:24:06.708Z,100996.34
2018-12-16T00:26:47.122Z,100982.63
2018-12-16T00:29:16.886Z,100988.23
2018-12-16T00:31:46.595Z,100981.29
2018-12-16T00:34:15.810Z,100973.27
2018-12-16T00:36:44.634Z,100960.88
2018-12-16T00:39:13.551Z,100962.13
2018-12-16T00:41:43.628Z,100951.01
2018-12-16T00:44:12.463Z,100951.01
2018-12-16T00:46:41.696Z,100941.64
2018-12-16T00:49:10.767Z,100936.04
2018-12-16T00:51:41.538Z,100934.75
2018-12-16T00:54:10.845Z,100928.35
2018-12-16T00:56:40.119Z,100932.22
2018-12-16T00:59:09.486Z,100926.25
2018-12-16T01:01:38.560Z,100931.89
2018-12-16T01:04:07.448Z,100933.53
2018-12-16T01:06:36.583Z,100918.62
2018-12-16T01:09:07.717Z,100914.33
2018-12-16T01:11:38.841Z,100912.19
2018-12-16T01:14:07.894Z,100913.84
2018-12-16T01:16:36.881Z,100913.84
2018-12-16T01:19:05.883Z,100908.29
2018-12-16T01:21:34.894Z,100898.89
2018-12-16T01:24:03.786Z,100899.69
2018-12-16T01:26:32.764Z,100894.98
2018-12-16T01:29:01.784Z,100892.92
2018-12-16T01:31:30.983Z,100900.94
2018-12-16T01:34:00.052Z,100898.80
2018-12-16T01:36:29.073Z,100898.37
2018-12-16T01:38:57.965Z,100900.58
2018-12-16T01:41:27.034Z,100904.78
2018-12-16T01:43:56.073Z,100896.55
2018-12-16T01:46:24.954Z,100891.45
2018-12-16T01:48:54.226Z,100879.50
2018-12-16T01:51:23.327Z,100883.38
2018-12-16T01:53:52.294Z,100882.88
2018-12-16T01:56:22.211Z,100888.43
2018-12-16T01:58:56.791Z,100878.97
2018-12-16T02:01:29.477Z,100870.44
2018-12-16T02:04:02.333Z,100868.27
2018-12-16T02:06:31.307Z,100864.88
2018-12-16T02:09:00.374Z,100855.52
2018-12-16T02:11:29.384Z,100855.09
2018-12-16T02:13:58.526Z,100849.55
2018-12-16T02:16:46.432Z,100840.54
2018-12-16T02:19:15.314Z,100832.00
2018-12-16T02:21:44.384Z,100826.84
2018-12-16T02:24:13.607Z,100820.41
2018-12-16T02:26:42.742Z,100814.81
2018-12-16T02:29:11.841Z,100814.78
2018-12-16T02:31:40.986Z,100804.95
2018-12-16T02:34:09.891Z,100790.79
2018-12-16T02:36:39.569Z,100792.03
2018-12-16T02:39:08.632Z,100789.94
2018-12-16T02:41:40.339Z,100783.95
2018-12-16T02:44:09.242Z,100775.34
2018-12-16T02:46:38.295Z,100761.70
2018-12-16T02:49:07.644Z,100758.57
2018-12-16T02:51:37.026Z,100756.12
2018-12-16T02:54:06.051Z,100755.66
2018-12-16T02:56:35.359Z,100749.67
2018-12-16T02:59:05.144Z,100745.40
2018-12-16T03:01:34.054Z,100739.34
2018-12-16T03:04:03.036Z,100735.03
2018-12-16T03:06:32.074Z,100729.52
2018-12-16T03:09:01.994Z,100727.00
2018-12-16T03:11:32.914Z,100716.67
2018-12-16T03:14:01.744Z,100720.47
2018-12-16T03:16:30.491Z,100717.09
2018-12-16T03:18:59.455Z,100718.64
2018-12-16T03:21:29.144Z,100715.61
2018-12-16T03:23:58.449Z,100711.37
2018-12-16T03:26:27.316Z,100714.76
2018-12-16T03:28:56.465Z,100708.34
2018-12-16T03:31:25.401Z,100704.93
2018-12-16T03:33:54.530Z,100699.72
2018-12-16T03:36:23.710Z,100703.95
2018-12-16T03:38:52.590Z,100693.31
2018-12-16T03:41:21.819Z,100691.69
2018-12-16T03:43:51.031Z,100683.64
2018-12-16T03:46:19.873Z,100687.14
2018-12-16T03:48:48.865Z,100685.41
2018-12-16T03:51:17.881Z,100679.92
2018-12-16T03:53:46.854Z,100681.52
2018-12-16T03:56:15.833Z,100681.47
2018-12-16T03:58:57.236Z,100684.42
2018-12-16T04:01:26.118Z,100680.63
2018-12-16T04:03:55.115Z,100683.17
2018-12-16T04:06:24.189Z,100685.74
2018-12-16T04:08:53.630Z,100676.69
2018-12-16T04:11:22.399Z,100677.58
2018-12-16T04:13:51.394Z,100679.77
2018-12-16T04:16:22.218Z,100675.95
2018-12-16T04:18:51.432Z,100668.27
2018-12-16T04:21:20.196Z,100664.00
2018-12-16T04:23:50.541Z,100670.36
2018-12-16T04:26:19.436Z,100660.11
2018-12-16T04:28:48.632Z,100661.09
2018-12-16T04:31:17.480Z,100656.39
2018-12-16T04:33:46.552Z,100651.38
2018-12-16T04:36:15.807Z,100648.40
2018-12-16T04:38:44.697Z,100645.10
2018-12-16T04:41:13.826Z,100639.16
2018-12-16T04:43:43.755Z,100649.03
2018-12-16T04:46:12.671Z,100650.34
2018-12-16T04:48:41.575Z,100643.56
2018-12-16T04:51:10.560Z,100639.64
2018-12-16T04:53:39.560Z,100649.07
2018-12-16T04:56:08.637Z,100647.09
2018-12-16T04:58:37.941Z,100647.60
2018-12-16T05:01:07.528Z,100637.08
2018-12-16T05:03:36.906Z,100638.29
2018-12-16T05:06:05.848Z,100639.06
2018-12-16T05:08:34.879Z,100638.29
2018-12-16T05:11:03.894Z,100633.28
2018-12-16T05:13:32.702Z,100631.14
2018-12-16T05:16:01.711Z,100631.53
2018-12-16T05:18:30.876Z,100632.35
2018-12-16T05:20:59.766Z,100631.88
2018-12-16T05:23:28.688Z,100626.64
2018-12-16T05:25:57.692Z,100620.74
2018-12-16T05:28:26.746Z,100627.58
2018-12-16T05:30:55.739Z,100621.59
2018-12-16T05:33:24.651Z,100613.99
2018-12-16T05:35:53.729Z,100616.09
2018-12-16T05:38:22.631Z,100614.38
2018-12-16T05:40:51.719Z,100614.03
2018-12-16T05:43:20.699Z,100615.70
2018-12-16T05:45:49.839Z,100613.22
2018-12-16T05:48:18.691Z,100607.75
2018-12-16T05:50:47.610Z,100604.25
2018-12-16T05:53:16.719Z,100612.83
2018-12-16T05:55:45.583Z,100599.55
2018-12-16T05:58:14.663Z,100611.08
2018-12-16T06:00:43.656Z,100604.84
2018-12-16T06:03:12.794Z,100609.87
2018-12-16T06:05:41.925Z,100604.64
2018-12-16T06:08:10.855Z,100598.66
2018-12-16T06:10:39.859Z,100601.66
2018-12-16T06:13:08.908Z,100596.83
2018-12-16T06:15:37.893Z,100606.69
2018-12-16T06:18:06.968Z,100602.89
2018-12-16T06:20:36.654Z,100600.67
2018-12-16T06:23:05.499Z,100605.38
2018-12-16T06:25:34.575Z,100604.98
2018-12-16T06:28:03.784Z,100606.31
2018-12-16T06:30:35.069Z,100604.52
2018-12-16T06:33:04.947Z,100601.83
2018-12-16T06:35:35.431Z,100601.83
2018-12-16T06:40:40.035Z,100613.66
2018-12-16T06:43:09.034Z,100611.91
2018-12-16T06:45:38.104Z,100604.19
2018-12-16T06:48:07.476Z,100607.26
2018-12-16T06:50:36.459Z,100610.17
2018-12-16T06:53:05.532Z,100610.08
2018-12-16T06:55:34.287Z,100602.34
2018-12-16T06:58:03.679Z,100599.31
2018-12-16T07:00:32.583Z,100602.31
2018-12-16T07:03:01.574Z,100604.95
2018-12-16T07:05:30.646Z,100603.72
2018-12-16T07:07:59.559Z,100602.36
2018-12-16T07:10:28.727Z,100601.53
2018-12-16T07:12:57.792Z,100600.27
2018-12-16T07:15:27.544Z,100604.92
2018-12-16T07:17:56.464Z,100600.13
2018-12-16T07:20:25.693Z,100593.37
2018-12-16T07:22:54.835Z,100595.94
2018-12-16T07:25:23.912Z,100603.67
2018-12-16T07:27:52.952Z,100602.22
2018-12-16T07:30:22.141Z,100603.37
2018-12-16T07:32:51.082Z,100607.64
2018-12-16T07:35:20.102Z,100608.45
2018-12-16T07:37:49.940Z,100608.89
2018-12-16T07:40:18.919Z,100614.52
2018-12-16T07:42:48.002Z,100612.01
2018-12-16T07:45:16.982Z,100610.67
2018-12-16T07:47:46.395Z,100611.88
2018-12-16T07:50:15.686Z,100622.55
2018-12-16T07:52:45.206Z,100620.72
2018-12-16T07:55:14.090Z,100624.13
2018-12-16T07:57:43.316Z,100624.09
2018-12-16T08:00:13.177Z,100626.19
2018-12-16T08:02:42.298Z,100628.74
2018-12-16T08:05:11.530Z,100629.08
2018-12-16T08:07:40.427Z,100629.38
2018-12-16T08:10:10.291Z,100635.28
2018-12-16T08:12:39.823Z,100635.61
2018-12-16T08:15:09.026Z,100627.45
2018-12-16T08:17:38.112Z,100632.19
2018-12-16T08:20:08.544Z,100628.73
2018-12-16T08:22:37.617Z,100628.73
2018-12-16T08:25:06.694Z,100624.88
2018-12-16T08:27:36.507Z,100619.99
2018-12-16T08:30:07.371Z,100623.37
2018-12-16T08:32:36.415Z,100616.91
2018-12-16T08:35:05.728Z,100618.14
2018-12-16T08:37:34.647Z,100613.20
2018-12-16T08:40:03.799Z,100617.05
2018-12-16T08:42:33.951Z,100616.20
2018-12-16T08:45:04.436Z,100625.03
2018-12-16T08:47:33.458Z,100626.66
2018-12-16T08:50:02.373Z,100630.73
2018-12-16T08:52:31.432Z,100635.77
2018-12-16T08:55:00.425Z,100631.84
2018-12-16T08:57:29.343Z,100642.38
2018-12-16T08:59:58.419Z,100635.96
2018-12-16T09:02:27.407Z,100644.42
2018-12-16T09:04:56.632Z,100635.77
2018-12-16T09:07:25.495Z,100631.11
2018-12-16T09:09:54.289Z,100627.16
2018-12-16T09:12:23.372Z,100630.53
2018-12-16T09:14:52.359Z,100627.88
2018-12-16T09:17:21.282Z,100629.16
2018-12-16T09:19:50.275Z,100631.67
2018-12-16T09:22:19.353Z,100629.86
2018-12-16T09:24:48.326Z,100640.67
2018-12-16T09:27:17.322Z,100641.99
2018-12-16T09:29:46.378Z,100643.28
2018-12-16T09:32:15.334Z,100653.59
2018-12-16T09:34:44.306Z,100656.25
2018-12-16T09:37:13.214Z,100659.53
2018-12-16T09:39:42.219Z,100666.34
2018-12-16T09:42:11.285Z,100659.44
2018-12-16T09:44:40.469Z,100659.48
2018-12-16T09:47:09.504Z,100657.34
2018-12-16T09:49:38.495Z,100658.53
2018-12-16T09:52:07.579Z,100649.02
2018-12-16T09:54:36.479Z,100648.69
2018-12-16T09:57:05.276Z,100645.33
2018-12-16T09:59:34.216Z,100651.25
2018-12-16T10:02:03.223Z,100650.69
2018-12-16T10:04:32.125Z,100639.94
2018-12-16T10:07:01.127Z,100643.16
2018-12-16T10:09:30.239Z,100641.33
2018-12-16T10:11:59.185Z,100638.56
2018-12-16T10:14:28.090Z,100636.42
2018-12-16T10:16:57.319Z,100627.06
2018-12-16T10:19:26.177Z,100624.50
2018-12-16T10:21:55.082Z,100630.44
2018-12-16T10:24:24.219Z,100634.66
2018-12-16T10:26:53.209Z,100628.67
2018-12-16T10:29:22.120Z,100631.61
2018-12-16T10:31:51.038Z,100623.91
2018-12-16T10:34:20.026Z,100620.81
2018-12-16T10:36:49.031Z,100619.84
2018-12-16T10:39:18.173Z,100623.70
2018-12-16T10:41:47.054Z,100621.93
2018-12-16T10:44:16.104Z,100620.65
2018-12-16T10:46:45.019Z,100626.57
2018-12-16T10:49:14.043Z,100625.12
2018-12-16T10:51:43.094Z,100623.37
2018-12-16T10:54:12.038Z,100617.00
2018-12-16T10:56:41.139Z,100617.37
2018-12-16T10:59:10.087Z,100620.79
2018-12-16T11:01:39.045Z,100608.74
2018-12-16T11:04:08.146Z,100602.65
2018-12-16T11:06:37.088Z,100606.87
2018-12-16T11:09:06.179Z,100598.30
2018-12-16T11:11:37.218Z,100600.59
2018-12-16T11:14:06.068Z,100599.57
2018-12-16T11:16:34.863Z,100599.19
2018-12-16T11:19:04.201Z,100596.52
2018-12-16T11:21:33.106Z,100605.66
2018-12-16T11:24:03.040Z,100604.81
2018-12-16T11:26:32.943Z,100599.55
2018-12-16T11:29:01.926Z,100597.30
2018-12-16T11:31:30.925Z,100598.58
2018-12-16T11:33:59.907Z,100596.81
2018-12-16T11:36:28.834Z,100594.98
2018-12-16T11:38:58.763Z,100588.25
2018-12-16T11:41:27.737Z,100587.81
2018-12-16T11:43:57.657Z,100584.70
2018-12-16T11:46:26.649Z,100577.38
2018-12-16T11:48:55.628Z,100584.22
2018-12-16T11:51:24.854Z,100582.03
2018-12-16T11:53:54.006Z,100586.78
2018-12-16T11:56:23.841Z,100591.20
2018-12-16T11:58:52.966Z,100589.05
2018-12-16T12:01:21.898Z,100576.40
2018-12-16T12:03:50.819Z,100584.09
2018-12-16T12:06:19.950Z,100583.23
2018-12-16T12:08:48.679Z,100580.25
2018-12-16T12:11:17.489Z,100578.59
2018-12-16T12:13:46.640Z,100577.66
2018-12-16T12:16:15.481Z,100574.50
2018-12-16T12:18:44.459Z,100586.50
2018-12-16T12:21:13.515Z,100594.83
2018-12-16T12:23:42.675Z,100584.42
2018-12-16T12:26:11.807Z,100584.47
2018-12-16T12:28:40.978Z,100583.88
2018-12-16T12:31:09.846Z,100580.73
2018-12-16T12:33:38.782Z,100580.20
2018-12-16T12:36:07.719Z,100570.28
2018-12-16T12:38:37.480Z,100571.73
2018-12-16T12:41:06.992Z,100579.41
2018-12-16T12:43:35.911Z,100583.15
2018-12-16T12:46:05.374Z,100588.66
2018-12-16T12:48:34.971Z,100587.31
2018-12-16T12:51:05.134Z,100589.80
2018-12-16T12:53:34.099Z,100583.68
2018-12-16T12:56:03.166Z,100590.97
2018-12-16T12:58:32.096Z,100584.83
2018-12-16T13:01:01.936Z,100576.20
2018-12-16T13:03:32.551Z,100581.55
2018-12-16T13:06:01.455Z,100584.36
2018-12-16T13:08:40.044Z,100589.98
2018-12-16T13:11:08.971Z,100593.73
2018-12-16T13:13:38.218Z,100601.80
2018-12-16T13:16:07.329Z,100605.25
2018-12-16T13:18:37.355Z,100601.75
2018-12-16T13:21:06.895Z,100599.97
2018-12-16T13:23:35.862Z,100599.53
2018-12-16T13:26:05.970Z,100602.16
2018-12-16T13:28:34.972Z,100595.31
2018-12-16T13:31:04.373Z,100602.11
2018-12-16T13:33:33.648Z,100601.61
2018-12-16T13:36:02.647Z,100597.76
2018-12-16T13:38:32.247Z,100598.61
2018-12-16T13:41:01.562Z,100610.08
2018-12-16T13:43:30.554Z,100600.20
2018-12-16T13:45:59.469Z,100611.59
2018-12-16T13:48:29.150Z,100605.15
2018-12-16T13:50:58.171Z,100607.61
2018-12-16T13:53:27.060Z,100610.67
2018-12-16T13:55:56.132Z,100613.25
2018-12-16T13:58:26.039Z,100615.45
2018-12-16T14:00:55.079Z,100618.52
2018-12-16T14:03:24.111Z,100612.22
2018-12-16T14:05:53.091Z,100616.45
2018-12-16T14:08:21.923Z,100622.38
2018-12-16T14:10:51.003Z,100620.18
2018-12-16T14:13:20.926Z,100619.39
2018-12-16T14:15:52.504Z,100625.73
2018-12-16T14:18:20.656Z,100626.18
2018-12-16T14:20:49.682Z,100624.05
2018-12-16T14:23:18.641Z,100632.67
2018-12-16T14:25:48.241Z,100630.34
2018-12-16T14:28:18.325Z,100629.73
2018-12-16T14:30:47.483Z,100619.41
2018-12-16T14:33:17.083Z,100618.62
2018-12-16T14:35:45.847Z,100625.69
2018-12-16T14:38:32.177Z,100629.68
2018-12-16T14:41:01.333Z,100632.25
2018-12-16T14:43:33.477Z,100627.52
2018-12-16T14:46:02.454Z,100627.05
2018-12-16T14:48:31.351Z,100629.79
2018-12-16T14:51:00.359Z,100628.02
2018-12-16T14:53:29.360Z,100633.66
2018-12-16T14:55:58.271Z,100633.98
2018-12-16T14:58:27.258Z,100639.18
2018-12-16T15:00:56.323Z,100644.74
2018-12-16T15:03:25.318Z,100654.08
2018-12-16T15:05:54.254Z,100654.49
2018-12-16T15:08:24.214Z,100659.03
2018-12-16T15:10:53.093Z,100662.08
2018-12-16T15:13:22.359Z,100656.57
2018-12-16T15:15:52.119Z,100656.08
2018-12-16T15:18:21.043Z,100665.94
2018-12-16T15:20:50.148Z,100668.02
2018-12-16T15:23:19.648Z,100662.41
2018-12-16T15:25:48.639Z,100666.68
2018-12-16T15:28:17.751Z,100660.14
2018-12-16T15:30:46.692Z,100664.91
2018-12-16T15:33:15.487Z,100667.53
2018-12-16T15:35:44.294Z,100660.98
2018-12-16T15:38:13.300Z,100659.75
2018-12-16T15:40:42.361Z,100661.40
2018-12-16T15:43:11.275Z,100666.93
2018-12-16T15:45:40.331Z,100655.28
2018-12-16T15:48:09.326Z,100651.98
2018-12-16T15:50:38.371Z,100651.10
2018-12-16T15:53:07.298Z,100658.71
2018-12-16T15:55:36.343Z,100676.24
2018-12-16T15:58:06.288Z,100669.86
2018-12-16T16:00:35.222Z,100672.38
2018-12-16T16:03:05.431Z,100674.11
2018-12-16T16:05:35.653Z,100673.23
2018-12-16T16:08:06.526Z,100680.52
2018-12-16T16:10:35.386Z,100674.11
2018-12-16T16:13:05.080Z,100672.88
2018-12-16T16:15:34.028Z,100668.94
2018-12-16T16:18:03.442Z,100675.37
2018-12-16T16:20:33.616Z,100673.67
2018-12-16T16:23:02.632Z,100667.64
2018-12-16T16:25:31.499Z,100682.62
2018-12-16T16:28:00.646Z,100680.90
2018-12-16T16:30:29.934Z,100671.09
2018-12-16T16:32:58.798Z,100677.48
2018-12-16T16:35:27.785Z,100680.11
2018-12-16T16:38:00.676Z,100683.53
2018-12-16T16:40:28.320Z,100691.33
2018-12-16T16:42:57.219Z,100685.80
2018-12-16T16:45:26.330Z,100687.47
2018-12-16T16:47:55.633Z,100691.25
2018-12-16T16:50:24.597Z,100684.81
2018-12-16T16:52:53.507Z,100683.17
2018-12-16T16:55:22.611Z,100677.64
2018-12-16T16:57:51.511Z,100674.16
2018-12-16T17:00:20.493Z,100678.13
2018-12-16T17:02:49.476Z,100685.08
2018-12-16T17:05:18.588Z,100693.35
2018-12-16T17:07:47.719Z,100689.00
2018-12-16T17:10:16.902Z,100688.13
2018-12-16T17:12:45.882Z,100690.20
2018-12-16T17:15:14.819Z,100688.43
2018-12-16T17:17:43.875Z,100697.33
2018-12-16T17:20:12.899Z,100693.47
2018-12-16T17:22:41.799Z,100687.53
2018-12-16T17:25:10.843Z,100699.91
2018-12-16T17:27:40.002Z,100701.94
2018-12-16T17:30:10.492Z,100704.13
2018-12-16T17:32:39.676Z,100725.88
2018-12-16T17:35:08.585Z,100722.77
2018-12-16T17:37:37.519Z,100724.73
2018-12-16T17:40:06.722Z,100721.78
2018-12-16T17:42:48.830Z,100721.72
2018-12-16T17:45:17.910Z,100721.23
2018-12-16T17:47:48.830Z,100723.37
2018-12-16T17:50:21.234Z,100725.45
2018-12-16T17:52:50.513Z,100726.80
2018-12-16T17:55:20.714Z,100736.60
2018-12-16T17:57:49.862Z,100738.71
2018-12-16T18:00:19.021Z,100737.40
2018-12-16T18:02:48.081Z,100740.47
2018-12-16T18:05:17.396Z,100744.16
2018-12-16T18:07:46.300Z,100742.00
2018-12-16T18:10:15.436Z,100739.78
2018-12-16T18:12:44.271Z,100737.45
2018-12-16T18:15:13.415Z,100741.70
2018-12-16T18:17:42.346Z,100747.32
2018-12-16T18:20:11.398Z,100743.53
2018-12-16T18:22:40.360Z,100750.72
2018-12-16T18:25:09.382Z,100745.48
2018-12-16T18:27:38.321Z,100740.69
2018-12-16T18:30:09.180Z,100735.13
2018-12-16T18:32:46.244Z,100735.56
2018-12-16T18:35:15.120Z,100743.27
2018-12-16T18:37:44.368Z,100750.69
2018-12-16T18:40:14.094Z,100757.93
2018-12-16T18:42:42.943Z,100757.44
2018-12-16T18:45:12.011Z,100759.11
2018-12-16T18:47:40.936Z,100759.11
2018-12-16T18:50:10.163Z,100766.04
2018-12-16T18:52:39.223Z,100777.14
2018-12-16T18:55:08.389Z,100774.20
2018-12-16T18:57:37.652Z,100774.70
2018-12-16T19:00:09.535Z,100771.25
2018-12-16T19:02:57.628Z,100777.69
2018-12-16T19:05:26.745Z,100781.86
2018-12-16T19:07:55.590Z,100784.33
2018-12-16T19:10:24.580Z,100781.75
2018-12-16T19:12:53.875Z,100783.39
2018-12-16T19:15:22.958Z,100781.67
2018-12-16T19:17:51.998Z,100779.66
2018-12-16T19:20:20.951Z,100780.45
2018-12-16T19:22:49.943Z,100785.28
2018-12-16T19:25:18.987Z,100783.81
2018-12-16T19:27:47.836Z,100791.84
2018-12-16T19:30:16.920Z,100793.02
2018-12-16T19:32:45.888Z,100795.52
2018-12-16T19:35:15.243Z,100794.25
2018-12-16T19:37:45.053Z,100799.41
2018-12-16T19:40:14.171Z,100801.41
2018-12-16T19:42:43.099Z,100799.07
2018-12-16T19:45:12.015Z,100798.94
2018-12-16T19:47:40.995Z,100799.31
2018-12-16T19:50:10.145Z,100806.25
2018-12-16T19:52:40.990Z,100806.99
2018-12-16T19:55:09.972Z,100815.50
2018-12-16T19:57:38.896Z,100815.82
2018-12-16T20:00:08.471Z,100817.91
2018-12-16T20:02:37.792Z,100821.25
2018-12-16T20:05:09.614Z,100821.69
2018-12-16T20:07:39.070Z,100820.64
2018-12-16T20:10:08.228Z,100828.88
2018-12-16T20:12:37.013Z,100831.02
2018-12-16T20:15:06.627Z,100829.72
2018-12-16T20:17:36.121Z,100838.25
2018-12-16T20:20:06.378Z,100823.28
2018-12-16T20:22:35.653Z,100824.63
2018-12-16T20:25:04.852Z,100821.48
2018-12-16T20:27:33.935Z,100820.14
2018-12-16T20:30:03.071Z,100826.35
2018-12-16T20:32:32.787Z,100829.72
2018-12-16T20:35:01.984Z,100832.86
2018-12-16T20:37:30.982Z,100837.02
2018-12-16T20:40:00.299Z,100836.61
2018-12-16T20:42:29.653Z,100839.12
2018-12-16T20:44:59.175Z,100844.70
2018-12-16T20:47:28.245Z,100851.14
2018-12-16T20:49:58.207Z,100852.93
2018-12-16T20:52:28.120Z,100852.44
2018-12-16T20:54:57.602Z,100855.51
2018-12-16T20:57:27.072Z,100853.42
2018-12-16T20:59:56.008Z,100858.96
2018-12-16T21:02:25.203Z,100856.80
2018-12-16T21:04:54.831Z,100856.38
2018-12-16T21:07:23.875Z,100861.54
2018-12-16T21:09:52.790Z,100870.19
2018-12-16T21:12:27.556Z,100867.17
2018-12-16T21:15:01.993Z,100873.31
2018-12-16T21:17:38.498Z,100870.19
2018-12-16T21:20:08.068Z,100867.11
2018-12-16T21:22:37.107Z,100867.49
2018-12-16T21:25:06.399Z,100866.20
2018-12-16T21:27:35.744Z,100865.33
2018-12-16T21:30:06.166Z,100868.78
2018-12-16T21:32:36.143Z,100864.91
2018-12-16T21:35:06.253Z,100870.87
2018-12-16T21:37:36.110Z,100871.72
2018-12-16T21:40:05.930Z,100872.93
2018-12-16T21:42:35.027Z,100868.16
2018-12-16T21:45:04.006Z,100878.41
2018-12-16T21:47:33.187Z,100878.03
2018-12-16T21:50:02.470Z,100877.17
2018-12-16T21:52:32.451Z,100883.12
2018-12-16T21:55:01.434Z,100887.44
2018-12-16T21:57:33.242Z,100893.50
2018-12-16T22:00:04.002Z,100882.77
2018-12-16T22:02:35.263Z,100888.78
2018-12-16T22:05:04.872Z,100893.00
2018-12-16T22:07:33.708Z,100895.97
2018-12-16T22:10:02.797Z,100897.14
2018-12-16T22:12:31.996Z,100891.06
2018-12-16T22:15:01.059Z,100898.25
2018-12-16T22:17:30.347Z,100895.28
2018-12-16T22:19:59.373Z,100896.95
2018-12-16T22:22:28.284Z,100902.61
2018-12-16T22:24:57.337Z,100895.66
2018-12-16T22:27:26.271Z,100897.81
2018-12-16T22:29:55.339Z,100898.60
2018-12-16T22:32:24.328Z,100898.72
2018-12-16T22:34:53.470Z,100895.17
2018-12-16T22:37:22.432Z,100907.63
2018-12-16T22:39:51.382Z,100906.27
2018-12-16T22:42:20.214Z,100913.03
2018-12-16T22:44:49.288Z,100916.08
2018-12-16T22:47:18.194Z,100906.59
2018-12-16T22:49:47.332Z,100913.09
2018-12-16T22:52:16.265Z,100908.34
2018-12-16T22:54:45.252Z,100900.05
2018-12-16T22:57:14.166Z,100899.86
2018-12-16T22:59:43.274Z,100896.78
2018-12-16T23:02:12.410Z,100893.77
2018-12-16T23:04:41.539Z,100899.02
2018-12-16T23:07:10.762Z,100892.62
2018-12-16T23:09:40.187Z,100891.88
2018-12-16T23:12:09.026Z,100888.83
2018-12-16T23:14:38.144Z,100887.55
2018-12-16T23:17:07.095Z,100895.70
2018-12-16T23:19:36.032Z,100892.97
2018-12-16T23:22:05.403Z,100894.90
2018-12-16T23:24:34.841Z,100896.33
2018-12-16T23:27:03.979Z,100905.91
2018-12-16T23:29:33.323Z,100905.41
2018-12-16T23:32:02.202Z,100902.64
2018-12-16T23:34:31.186Z,100899.94
2018-12-16T23:37:00.206Z,100898.27
2018-12-16T23:39:29.246Z,100897.91
2018-12-16T23:41:58.543Z,100894.98
2018-12-16T23:44:27.471Z,100902.72
2018-12-16T23:46:56.599Z,100902.64
2018-12-16T23:49:25.703Z,100898.71
2018-12-16T23:51:54.751Z,100898.22
2018-12-16T23:54:23.823Z,100906.20
2018-12-16T23:56:53.071Z,100906.50
2018-12-16T23:59:22.031Z,100908.50
